首页
METAR-TAF:

METAR-TAF

机场 :

Bluefields, 尼加拉瓜

纬度: 12-00N, 经度: 083-46W, 海拔: 5米

当前天气观测

该预报发布于1小时和14分钟前的15:00 UTC
风速4节,风向
温度 26°C
湿度 94%
气压 1014 hPa
能見度: 5000
多云层高于1700英尺
小毛毛雨

METAR: MNBL 121500Z 36004KT 5000 -DZ BKN017 26/25 Q1014

时间: 10:14 (16:14 UTC)

预报

该预报发布于18小时和26分钟前的21:48 UTC
预报有效从12日的 00点(UTC)到 12日的 24点(UTC)
风速6节,风向
能見度: 7000
多云层高于1700英尺
散云层高于7000英尺
短暂存在
从 12日的 03点(UTC)到 12日的 12点(UTC)
能見度: 5000

TAF: MNBL 122148Z 1200/1224 10006KT 7000 DZ/VCRA BKN017 SCT070 TEMPO 1203/1212 5000 +DZ/RA

超过4000个机场的气象观测和天气预报(METAR&TAF报告)。

可查询的气象台以黄色和红色小点在地图上表示。

将鼠标移到小点上方,可查看气象台名称。

然后点击查看天气观测和预报。

如需切换地图:点击带黑十字的绿色按钮放大地图;点击带横线的绿色按钮缩小地图;或者点击绿色箭头查看邻近地区的地图。


METAR-TAF: